createdAt,value
2023-03-12T00:02:01.719Z,7.77
2023-03-12T00:04:28.769Z,8.20
2023-03-12T00:06:55.634Z,6.73
2023-03-12T00:09:23.495Z,8.57
2023-03-12T00:11:50.208Z,9.87
2023-03-12T00:14:16.981Z,8.23
2023-03-12T00:16:43.668Z,8.23
2023-03-12T00:19:12.848Z,5.53
2023-03-12T00:21:40.141Z,9.33
2023-03-12T00:24:11.249Z,9.27
2023-03-12T00:26:38.500Z,7.63
2023-03-12T00:29:05.792Z,13.90
2023-03-12T00:31:33.499Z,9.43
2023-03-12T00:34:07.580Z,11.73
2023-03-12T00:36:36.657Z,7.57
2023-03-12T00:39:04.010Z,11.20
2023-03-12T00:41:30.835Z,9.33
2023-03-12T00:44:00.446Z,6.87
2023-03-12T00:46:31.437Z,8.00
2023-03-12T00:48:59.331Z,7.80
2023-03-12T00:51:26.134Z,9.30
2023-03-12T00:53:53.174Z,8.57
2023-03-12T00:56:19.910Z,8.90
2023-03-12T00:58:46.743Z,8.43
2023-03-12T01:01:13.897Z,7.73
2023-03-12T01:03:40.690Z,7.43
2023-03-12T01:06:07.551Z,6.87
2023-03-12T01:08:34.587Z,11.13
2023-03-12T01:11:01.397Z,9.67
2023-03-12T01:13:28.161Z,9.60
2023-03-12T01:15:54.867Z,6.43
2023-03-12T01:18:21.743Z,9.37
2023-03-12T01:20:48.814Z,7.40
2023-03-12T01:23:19.340Z,10.07
2023-03-12T01:25:47.556Z,7.27
2023-03-12T01:28:14.441Z,14.73
2023-03-12T01:30:41.285Z,9.70
2023-03-12T01:33:08.145Z,11.60
2023-03-12T01:35:39.454Z,8.60
2023-03-12T01:38:08.034Z,10.53
2023-03-12T01:40:36.005Z,7.57
2023-03-12T01:43:23.512Z,7.87
2023-03-12T01:46:30.143Z,6.33
2023-03-12T01:49:15.787Z,11.57
2023-03-12T01:52:09.336Z,9.73
2023-03-12T01:54:37.759Z,6.90
2023-03-12T01:57:08.513Z,7.50
2023-03-12T01:59:47.513Z,6.53
2023-03-12T02:02:15.719Z,11.17
2023-03-12T02:04:44.887Z,9.73
2023-03-12T02:07:16.630Z,6.73
2023-03-12T02:09:49.484Z,10.17
2023-03-12T02:12:17.529Z,6.70
2023-03-12T02:14:44.323Z,5.60
2023-03-12T02:17:11.702Z,9.43
2023-03-12T02:20:01.426Z,8.93
2023-03-12T02:22:29.433Z,10.67
2023-03-12T02:25:18.232Z,7.77
2023-03-12T02:27:45.718Z,6.67
2023-03-12T02:30:16.019Z,8.37
2023-03-12T02:32:47.242Z,8.07
2023-03-12T02:35:16.494Z,6.33
2023-03-12T02:37:51.143Z,9.23
2023-03-12T02:40:29.374Z,5.40
2023-03-12T02:42:56.546Z,7.80
2023-03-12T02:45:25.874Z,7.23
2023-03-12T02:47:53.419Z,5.43
2023-03-12T02:50:23.481Z,7.00
2023-03-12T02:52:50.360Z,5.07
2023-03-12T02:55:17.106Z,6.80
2023-03-12T02:57:44.038Z,6.93
2023-03-12T03:00:12.930Z,7.47
2023-03-12T03:02:41.157Z,5.43
2023-03-12T03:05:09.268Z,6.70
2023-03-12T03:07:36.360Z,9.07
2023-03-12T03:10:04.695Z,7.90
2023-03-12T03:12:32.505Z,5.73
2023-03-12T03:14:59.446Z,9.03
2023-03-12T03:17:26.999Z,7.50
2023-03-12T03:19:54.132Z,7.47
2023-03-12T03:22:22.102Z,6.93
2023-03-12T03:24:49.012Z,10.43
2023-03-12T03:27:19.270Z,6.53
2023-03-12T03:29:46.713Z,8.90
2023-03-12T03:32:13.650Z,11.17
2023-03-12T03:34:43.309Z,7.50
2023-03-12T03:37:10.111Z,6.07
2023-03-12T03:39:36.810Z,10.57
2023-03-12T03:42:03.576Z,7.90
2023-03-12T03:44:30.498Z,6.40
2023-03-12T03:46:57.269Z,10.03
2023-03-12T03:49:24.253Z,7.47
2023-03-12T03:51:51.939Z,8.03
2023-03-12T03:54:19.340Z,8.00
2023-03-12T03:56:46.468Z,7.93
2023-03-12T03:59:13.343Z,8.20
2023-03-12T04:01:40.464Z,6.63
2023-03-12T04:04:07.541Z,6.73
2023-03-12T04:06:37.348Z,6.03
2023-03-12T04:09:04.713Z,6.33
2023-03-12T04:11:34.995Z,9.50
2023-03-12T04:14:02.962Z,7.20
2023-03-12T04:16:29.667Z,6.83
2023-03-12T04:18:56.400Z,6.47
2023-03-12T04:21:23.377Z,7.53
2023-03-12T04:23:50.147Z,9.67
2023-03-12T04:26:17.474Z,7.83
2023-03-12T04:28:44.478Z,5.33
2023-03-12T04:31:11.812Z,6.50
2023-03-12T04:33:39.754Z,6.83
2023-03-12T04:36:08.060Z,8.70
2023-03-12T04:38:34.805Z,7.13
2023-03-12T04:41:11.559Z,6.90
2023-03-12T04:43:38.293Z,8.23
2023-03-12T04:46:05.137Z,5.23
2023-03-12T04:48:34.568Z,7.93
2023-03-12T04:51:03.393Z,5.93
2023-03-12T04:53:30.662Z,9.97
2023-03-12T04:55:57.674Z,10.23
2023-03-12T04:58:24.434Z,11.43
2023-03-12T05:00:51.811Z,11.70
2023-03-12T05:03:19.068Z,9.33
2023-03-12T05:05:45.933Z,5.53
2023-03-12T05:08:15.013Z,5.10
2023-03-12T05:10:45.505Z,16.03
2023-03-12T05:13:17.038Z,6.60
2023-03-12T05:15:44.274Z,9.40
2023-03-12T05:18:11.610Z,11.93
2023-03-12T05:20:38.568Z,10.07
2023-03-12T05:23:05.767Z,8.53
2023-03-12T05:25:32.495Z,6.77
2023-03-12T05:27:59.284Z,9.70
2023-03-12T05:30:26.037Z,10.60
2023-03-12T05:32:52.735Z,9.23
2023-03-12T05:35:19.487Z,8.90
2023-03-12T05:37:46.280Z,10.37
2023-03-12T05:40:14.035Z,9.73
2023-03-12T05:42:40.840Z,9.57
2023-03-12T05:45:08.279Z,9.37
2023-03-12T05:47:35.101Z,6.30
2023-03-12T05:50:08.129Z,10.60
2023-03-12T05:52:34.892Z,9.40
2023-03-12T05:55:01.609Z,9.83
2023-03-12T05:57:28.363Z,7.87
2023-03-12T05:59:55.336Z,13.27
2023-03-12T06:02:22.195Z,13.17
2023-03-12T06:04:48.952Z,6.70
2023-03-12T06:07:15.640Z,7.73
2023-03-12T06:09:46.908Z,10.00
2023-03-12T06:12:13.661Z,8.47
2023-03-12T06:14:40.378Z,8.53
2023-03-12T06:17:07.502Z,10.40
2023-03-12T06:19:34.196Z,8.87
2023-03-12T06:22:00.972Z,9.10
2023-03-12T06:24:27.730Z,10.07
2023-03-12T06:26:54.879Z,9.37
2023-03-12T06:29:24.700Z,9.03
2023-03-12T06:31:52.362Z,9.00
2023-03-12T06:34:19.268Z,6.70
2023-03-12T06:36:46.341Z,7.23
2023-03-12T06:39:13.196Z,9.37
2023-03-12T06:41:41.472Z,8.30
2023-03-12T06:44:08.280Z,10.30
2023-03-12T06:46:35.141Z,7.70
2023-03-12T06:49:04.935Z,9.67
2023-03-12T06:51:34.550Z,10.53
2023-03-12T06:54:02.724Z,7.57
2023-03-12T06:56:30.810Z,11.10
2023-03-12T06:58:57.604Z,11.10
2023-03-12T07:01:24.396Z,10.73
2023-03-12T07:03:51.319Z,13.43
2023-03-12T07:06:22.608Z,10.30
2023-03-12T07:08:50.866Z,11.10
2023-03-12T07:11:18.301Z,12.77
2023-03-12T07:13:45.447Z,12.80
2023-03-12T07:16:12.406Z,11.37
2023-03-12T07:18:39.217Z,14.60
2023-03-12T07:21:06.097Z,9.50
2023-03-12T07:23:32.831Z,11.30
2023-03-12T07:25:59.580Z,9.57
2023-03-12T07:28:26.245Z,12.00
2023-03-12T07:30:53.362Z,9.17
2023-03-12T07:33:21.597Z,9.07
2023-03-12T07:35:51.555Z,10.87
2023-03-12T07:38:18.859Z,11.97
2023-03-12T07:40:52.473Z,11.13
2023-03-12T07:43:21.659Z,12.90
2023-03-12T07:45:49.583Z,13.80
2023-03-12T07:48:17.231Z,11.50
2023-03-12T07:50:44.428Z,12.17
2023-03-12T07:53:11.236Z,11.47
2023-03-12T07:55:38.321Z,12.53
2023-03-12T07:58:07.740Z,13.27
2023-03-12T08:00:34.536Z,9.53
2023-03-12T08:03:01.410Z,12.67
2023-03-12T08:05:28.353Z,12.83
2023-03-12T08:07:55.251Z,11.93
2023-03-12T08:10:22.661Z,15.73
2023-03-12T08:12:49.577Z,11.17
2023-03-12T08:15:20.293Z,10.33
2023-03-12T08:17:47.116Z,10.77
2023-03-12T08:20:14.046Z,13.97
2023-03-12T08:22:44.081Z,12.53
2023-03-12T08:25:13.808Z,13.23
2023-03-12T08:27:41.269Z,10.57
2023-03-12T08:30:08.714Z,12.33
2023-03-12T08:32:38.621Z,13.60
2023-03-12T08:35:05.911Z,11.43
2023-03-12T08:37:32.963Z,15.70
2023-03-12T08:40:00.201Z,12.87
2023-03-12T08:42:27.123Z,13.97
2023-03-12T08:44:54.135Z,14.23
2023-03-12T08:47:20.918Z,12.03
2023-03-12T08:49:47.650Z,15.83
2023-03-12T08:52:14.394Z,16.17
2023-03-12T08:54:41.343Z,13.77
2023-03-12T08:57:10.976Z,18.33
2023-03-12T08:59:37.764Z,15.53
2023-03-12T09:02:07.461Z,15.37
2023-03-12T09:04:37.070Z,19.00
2023-03-12T09:07:04.605Z,19.70
2023-03-12T09:09:31.694Z,19.20
2023-03-12T09:11:58.420Z,18.40
2023-03-12T09:17:11.822Z,22.03
2023-03-12T09:19:39.430Z,23.80
2023-03-12T09:22:06.205Z,24.17
2023-03-12T09:24:32.997Z,25.10
2023-03-12T09:26:59.897Z,28.73
2023-03-12T09:29:33.524Z,31.80
2023-03-12T09:32:00.239Z,26.97
2023-03-12T09:34:27.096Z,30.37
2023-03-12T09:36:54.142Z,31.70
2023-03-12T09:39:22.899Z,33.80
2023-03-12T09:41:53.083Z,31.90
2023-03-12T09:44:32.380Z,33.90
2023-03-12T09:47:22.389Z,29.37
2023-03-12T09:49:54.216Z,32.30
2023-03-12T09:52:32.935Z,27.23
2023-03-12T09:55:11.727Z,32.53
2023-03-12T09:57:38.558Z,29.47
2023-03-12T10:00:08.242Z,29.97
2023-03-12T10:02:46.821Z,31.87
2023-03-12T10:05:20.770Z,32.37
2023-03-12T10:07:53.384Z,28.13
2023-03-12T10:10:49.780Z,29.67
2023-03-12T10:13:50.722Z,32.47
2023-03-12T10:16:20.499Z,30.57
2023-03-12T10:18:48.474Z,29.87
2023-03-12T10:21:28.570Z,26.30
2023-03-12T10:24:05.752Z,27.67
2023-03-12T10:26:42.621Z,24.67
2023-03-12T10:29:26.616Z,25.63
2023-03-12T10:32:05.392Z,27.50
2023-03-12T10:34:42.130Z,25.47
2023-03-12T10:37:39.111Z,23.90
2023-03-12T10:40:06.334Z,26.97
2023-03-12T10:42:33.704Z,28.67
2023-03-12T10:45:09.828Z,29.50
2023-03-12T10:47:41.906Z,19.10
2023-03-12T10:50:21.742Z,20.00
2023-03-12T10:52:51.239Z,24.57
2023-03-12T10:55:27.529Z,27.70
2023-03-12T10:57:54.842Z,18.47
2023-03-12T11:00:28.636Z,17.37
2023-03-12T11:03:18.754Z,24.57
2023-03-12T11:05:52.042Z,22.33
2023-03-12T11:08:27.126Z,27.60
2023-03-12T11:10:55.672Z,26.23
2023-03-12T11:13:29.855Z,19.50
2023-03-12T11:16:02.281Z,24.23
2023-03-12T11:18:34.698Z,15.90
2023-03-12T11:21:13.173Z,19.50
2023-03-12T11:23:48.298Z,28.17
2023-03-12T11:26:22.246Z,15.37
2023-03-12T11:28:51.629Z,22.40
2023-03-12T11:31:30.656Z,21.17
2023-03-12T11:34:08.028Z,24.27
2023-03-12T11:36:51.262Z,24.60
2023-03-12T11:39:43.304Z,18.87
2023-03-12T11:43:12.343Z,21.43
2023-03-12T11:45:56.372Z,19.30
2023-03-12T11:48:48.686Z,20.00
2023-03-12T11:51:32.483Z,21.13
2023-03-12T11:54:23.740Z,23.33
2023-03-12T11:57:26.932Z,26.53
2023-03-12T12:00:14.009Z,24.93
2023-03-12T12:02:43.706Z,22.07
2023-03-12T12:05:22.335Z,28.33
2023-03-12T12:07:55.002Z,23.50
2023-03-12T12:10:38.031Z,23.37
2023-03-12T12:13:35.593Z,20.07
2023-03-12T12:16:17.658Z,28.73
2023-03-12T12:18:44.412Z,25.67
2023-03-12T12:21:44.769Z,25.37
2023-03-12T12:24:38.857Z,19.63
2023-03-12T12:27:24.282Z,24.90
2023-03-12T12:30:15.226Z,25.90
2023-03-12T12:33:31.790Z,20.53
2023-03-12T12:35:59.493Z,20.57
2023-03-12T12:38:43.953Z,23.67
2023-03-12T12:41:13.195Z,19.03
2023-03-12T12:44:09.342Z,17.53
2023-03-12T12:46:43.010Z,21.77
2023-03-12T12:49:18.653Z,22.23
2023-03-12T12:51:53.469Z,26.03
2023-03-12T12:54:48.390Z,20.80
2023-03-12T12:57:24.383Z,24.90
2023-03-12T13:00:09.806Z,19.83
2023-03-12T13:02:40.406Z,19.80
2023-03-12T13:05:25.438Z,18.30
2023-03-12T13:07:52.336Z,25.60
2023-03-12T13:10:34.195Z,19.87
2023-03-12T13:13:09.362Z,24.43
2023-03-12T13:15:40.089Z,20.13
2023-03-12T13:18:12.584Z,22.73
2023-03-12T13:20:51.710Z,22.57
2023-03-12T13:23:39.211Z,20.93
2023-03-12T13:26:11.732Z,22.97
2023-03-12T13:29:11.300Z,20.33
2023-03-12T13:31:40.807Z,23.27
2023-03-12T13:34:19.580Z,20.70
2023-03-12T13:36:50.531Z,19.90
2023-03-12T13:39:17.325Z,17.70
2023-03-12T13:41:49.834Z,19.07
2023-03-12T13:44:34.734Z,17.10
2023-03-12T13:47:23.241Z,15.23
2023-03-12T13:50:00.990Z,15.17
2023-03-12T13:52:30.992Z,19.77
2023-03-12T13:55:00.748Z,17.43
2023-03-12T13:57:36.283Z,21.50
2023-03-12T14:00:11.432Z,16.63
2023-03-12T14:02:45.390Z,15.47
2023-03-12T14:05:15.641Z,12.87
2023-03-12T14:07:45.141Z,13.03
2023-03-12T14:10:11.870Z,20.53
2023-03-12T14:12:57.602Z,17.10
2023-03-12T14:15:32.488Z,20.40
2023-03-12T14:18:06.969Z,21.30
2023-03-12T14:20:42.152Z,15.03
2023-03-12T14:23:15.119Z,18.70
2023-03-12T14:25:48.372Z,20.17
2023-03-12T14:28:21.060Z,20.67
2023-03-12T14:31:01.353Z,27.10
2023-03-12T14:33:35.220Z,18.07
2023-03-12T14:36:06.517Z,22.67
2023-03-12T14:38:43.869Z,18.53
2023-03-12T14:41:25.773Z,18.93
2023-03-12T14:43:55.207Z,21.07
2023-03-12T14:46:24.585Z,22.23
2023-03-12T14:48:55.455Z,20.43
2023-03-12T14:51:25.653Z,24.47
2023-03-12T14:53:53.570Z,24.90
2023-03-12T14:56:35.294Z,23.80
2023-03-12T14:59:28.518Z,24.40
2023-03-12T15:02:14.845Z,30.33
2023-03-12T15:04:42.265Z,26.50
2023-03-12T15:07:15.458Z,27.07
2023-03-12T15:09:52.354Z,24.97
2023-03-12T15:12:21.797Z,17.43
2023-03-12T15:14:51.709Z,21.93
2023-03-12T15:17:20.763Z,23.20
2023-03-12T15:19:49.089Z,21.90
2023-03-12T15:22:23.270Z,29.17
2023-03-12T15:24:50.605Z,20.60
2023-03-12T15:27:29.718Z,19.03
2023-03-12T15:29:58.762Z,24.73
2023-03-12T15:32:27.057Z,21.37
2023-03-12T15:34:56.558Z,20.90
2023-03-12T15:37:38.306Z,17.13
2023-03-12T15:40:27.248Z,26.57
2023-03-12T15:42:58.921Z,26.27
2023-03-12T15:45:37.484Z,23.10
2023-03-12T15:48:15.502Z,25.83
2023-03-12T15:50:44.749Z,27.73
2023-03-12T15:53:14.165Z,28.07
2023-03-12T15:55:44.108Z,29.53
2023-03-12T15:58:31.687Z,31.03
2023-03-12T16:01:14.065Z,26.47
2023-03-12T16:03:42.790Z,29.80
2023-03-12T16:06:13.533Z,25.27
2023-03-12T16:08:50.893Z,33.43
2023-03-12T16:11:23.927Z,28.73
2023-03-12T16:14:02.831Z,23.33
2023-03-12T16:16:29.998Z,25.10
2023-03-12T16:18:56.793Z,23.27
2023-03-12T16:21:23.739Z,23.03
2023-03-12T16:23:52.238Z,20.93
2023-03-12T16:26:19.583Z,20.70
2023-03-12T16:28:46.535Z,23.87
2023-03-12T16:31:15.206Z,26.23
2023-03-12T16:33:43.795Z,23.73
2023-03-12T16:36:15.872Z,25.33
2023-03-12T16:38:43.616Z,21.43
2023-03-12T16:41:16.867Z,26.07
2023-03-12T16:43:48.695Z,18.50
2023-03-12T16:46:20.819Z,20.47
2023-03-12T16:48:53.599Z,24.93
2023-03-12T16:51:20.754Z,18.57
2023-03-12T16:53:55.865Z,19.80
2023-03-12T16:56:32.404Z,21.83
2023-03-12T16:59:10.349Z,23.23
2023-03-12T17:01:37.247Z,17.33
2023-03-12T17:04:04.985Z,34.53
2023-03-12T17:06:32.819Z,22.00
2023-03-12T17:09:02.379Z,22.97
2023-03-12T17:11:32.934Z,25.47
2023-03-12T17:14:02.893Z,26.83
2023-03-12T17:16:29.777Z,24.63
2023-03-12T17:19:04.561Z,19.60
2023-03-12T17:21:31.400Z,21.80
2023-03-12T17:23:58.204Z,27.50
2023-03-12T17:26:24.917Z,23.97
2023-03-12T17:28:51.608Z,22.73
2023-03-12T17:31:18.425Z,23.33
2023-03-12T17:33:45.287Z,24.87
2023-03-12T17:36:12.095Z,25.33
2023-03-12T17:38:39.062Z,19.97
2023-03-12T17:41:13.835Z,25.50
2023-03-12T17:43:50.357Z,26.50
2023-03-12T17:46:17.259Z,22.73
2023-03-12T17:48:43.969Z,21.23
2023-03-12T17:51:16.524Z,24.37
2023-03-12T17:53:46.306Z,24.07
2023-03-12T17:56:13.286Z,25.10
2023-03-12T17:58:42.619Z,21.17
2023-03-12T18:01:09.449Z,24.30
2023-03-12T18:03:38.769Z,21.30
2023-03-12T18:06:05.762Z,23.10
2023-03-12T18:08:35.270Z,24.20
2023-03-12T18:11:03.131Z,19.47
2023-03-12T18:13:30.599Z,27.00
2023-03-12T18:15:58.732Z,32.60
2023-03-12T18:18:26.345Z,25.60
2023-03-12T18:20:53.414Z,20.50
2023-03-12T18:23:27.839Z,22.87
2023-03-12T18:25:54.754Z,25.53
2023-03-12T18:28:22.507Z,23.60
2023-03-12T18:30:53.821Z,25.87
2023-03-12T18:33:20.691Z,26.90
2023-03-12T18:35:47.518Z,29.10
2023-03-12T18:38:14.563Z,27.03
2023-03-12T18:40:41.329Z,31.63
2023-03-12T18:43:15.305Z,25.70
2023-03-12T18:45:43.859Z,26.00
2023-03-12T18:48:21.388Z,21.27
2023-03-12T18:50:49.915Z,21.60
2023-03-12T18:53:16.812Z,25.33
2023-03-12T18:55:58.067Z,22.37
2023-03-12T18:58:26.604Z,24.50
2023-03-12T19:00:58.274Z,27.83
2023-03-12T19:03:26.117Z,25.63
2023-03-12T19:06:04.696Z,29.53
2023-03-12T19:08:32.379Z,25.23
2023-03-12T19:11:03.938Z,27.13
2023-03-12T19:13:30.662Z,30.90
2023-03-12T19:16:08.746Z,19.87
2023-03-12T19:18:37.183Z,27.47
2023-03-12T19:21:12.886Z,18.00
2023-03-12T19:23:39.964Z,19.37
2023-03-12T19:26:07.637Z,19.07
2023-03-12T19:28:34.742Z,23.47
2023-03-12T19:31:06.578Z,23.13
2023-03-12T19:33:36.477Z,26.80
2023-03-12T19:36:03.936Z,22.33
2023-03-12T19:38:31.182Z,26.80
2023-03-12T19:40:58.599Z,18.77
2023-03-12T19:43:28.175Z,21.63
2023-03-12T19:45:55.809Z,19.73
2023-03-12T19:48:25.160Z,24.40
2023-03-12T19:50:53.634Z,29.07
2023-03-12T19:53:22.822Z,24.63
2023-03-12T19:55:50.167Z,24.13
2023-03-12T19:58:19.145Z,26.50
2023-03-12T20:00:46.053Z,28.07
2023-03-12T20:03:15.344Z,23.60
2023-03-12T20:05:50.598Z,23.17
2023-03-12T20:08:17.581Z,28.00
2023-03-12T20:10:47.591Z,24.87
2023-03-12T20:13:17.790Z,19.40
2023-03-12T20:15:48.533Z,26.77
2023-03-12T20:18:15.980Z,26.70
2023-03-12T20:20:43.183Z,24.90
2023-03-12T20:23:10.209Z,28.07
2023-03-12T20:25:43.424Z,23.47
2023-03-12T20:28:13.294Z,25.23
2023-03-12T20:30:43.006Z,25.07
2023-03-12T20:33:09.848Z,32.67
2023-03-12T20:35:37.149Z,30.47
2023-03-12T20:38:06.250Z,22.67
2023-03-12T20:40:33.008Z,25.53
2023-03-12T20:43:02.529Z,22.43
2023-03-12T20:45:29.432Z,23.50
2023-03-12T20:47:57.859Z,28.97
2023-03-12T20:50:26.262Z,32.23
2023-03-12T20:52:53.201Z,23.57
2023-03-12T20:55:20.027Z,31.57
2023-03-12T20:57:46.758Z,25.60
2023-03-12T21:00:13.794Z,19.50
2023-03-12T21:02:40.568Z,27.33
2023-03-12T21:05:10.055Z,23.40
2023-03-12T21:07:36.866Z,26.03
2023-03-12T21:10:03.882Z,28.43
2023-03-12T21:12:30.600Z,32.03
2023-03-12T21:15:06.144Z,27.80
2023-03-12T21:17:34.904Z,29.53
2023-03-12T21:20:05.292Z,22.37
2023-03-12T21:22:32.563Z,25.90
2023-03-12T21:25:01.597Z,26.33
2023-03-12T21:27:38.252Z,20.43
2023-03-12T21:30:12.292Z,30.83
2023-03-12T21:32:40.969Z,25.47
2023-03-12T21:35:08.383Z,24.67
2023-03-12T21:37:38.092Z,24.90
2023-03-12T21:40:07.773Z,26.67
2023-03-12T21:42:34.872Z,19.57
2023-03-12T21:45:01.597Z,25.17
2023-03-12T21:47:30.476Z,20.47
2023-03-12T21:49:57.278Z,22.43
2023-03-12T21:52:24.212Z,26.87
2023-03-12T21:54:50.992Z,20.97
2023-03-12T21:57:17.797Z,22.67
2023-03-12T21:59:47.410Z,20.37
2023-03-12T22:02:14.940Z,20.43
2023-03-12T22:04:41.855Z,21.40
2023-03-12T22:07:08.882Z,19.73
2023-03-12T22:09:35.557Z,20.07
2023-03-12T22:12:05.752Z,20.07
2023-03-12T22:14:32.753Z,21.37
2023-03-12T22:16:59.452Z,18.77
2023-03-12T22:19:26.202Z,14.53
2023-03-12T22:21:53.004Z,19.03
2023-03-12T22:24:19.756Z,23.60
2023-03-12T22:26:46.892Z,26.40
2023-03-12T22:29:13.762Z,17.43
2023-03-12T22:31:40.588Z,17.83
2023-03-12T22:34:07.361Z,17.60
2023-03-12T22:36:34.271Z,17.30
2023-03-12T22:39:01.010Z,18.00
2023-03-12T22:41:29.457Z,17.20
2023-03-12T22:44:01.090Z,20.63
2023-03-12T22:46:29.220Z,16.93
2023-03-12T22:49:01.339Z,16.87
2023-03-12T22:51:31.492Z,17.33
2023-03-12T22:53:58.457Z,17.03
2023-03-12T22:56:25.432Z,17.27
2023-03-12T22:58:52.405Z,15.60
2023-03-12T23:01:21.099Z,15.30
2023-03-12T23:03:48.742Z,20.17
2023-03-12T23:06:18.173Z,17.47
2023-03-12T23:08:47.508Z,17.23
2023-03-12T23:11:15.777Z,20.63
2023-03-12T23:13:44.585Z,23.23
2023-03-12T23:16:14.918Z,18.77
2023-03-12T23:18:43.221Z,16.43
2023-03-12T23:21:13.233Z,16.70
2023-03-12T23:23:42.072Z,26.10
2023-03-12T23:26:14.498Z,13.97
2023-03-12T23:28:41.986Z,17.90
2023-03-12T23:31:10.606Z,17.23
2023-03-12T23:33:38.256Z,15.90
2023-03-12T23:36:23.319Z,21.67
2023-03-12T23:38:50.460Z,15.37
2023-03-12T23:41:25.398Z,23.57
2023-03-12T23:43:53.010Z,20.10
2023-03-12T23:46:23.024Z,16.57
2023-03-12T23:48:50.761Z,27.23
2023-03-12T23:51:23.028Z,20.10
2023-03-12T23:53:52.330Z,21.80
2023-03-12T23:56:24.988Z,21.33
2023-03-12T23:58:51.940Z,17.20
